Time;durP1;ratioP1;P1;durP2;ratioP2;P2;SDS_P1;SDS_P2;PMS_P1;PMS_P2;Temp;Humidity;BMP_temperature;BMP_pressure;BME280_temperature;BME280_humidity;BME280_pressure;Samples;Min_cycle;Max_cycle;Signal;HPM_P1;HPM_P2
2022/08/14 00:02:23;;;;;;;7.27;5.00;;;20.80;57.40;;;;;;5050630;28;20194;-70
2022/08/14 00:04:48;;;;;;;4.97;4.67;;;20.70;57.70;;;;;;5046823;28;20249;-71
2022/08/14 00:07:14;;;;;;;4.80;4.00;;;20.70;57.80;;;;;;5044853;28;20262;-71
2022/08/14 00:09:41;;;;;;;7.13;4.70;;;20.70;57.60;;;;;;5047360;28;20680;-71
2022/08/14 00:12:07;;;;;;;5.03;4.17;;;20.60;58.50;;;;;;5044215;28;20218;-73
2022/08/14 00:14:33;;;;;;;8.70;4.50;;;20.60;58.40;;;;;;5043400;28;20461;-72
2022/08/14 00:16:58;;;;;;;7.47;4.63;;;20.60;58.40;;;;;;5041695;28;20303;-71
2022/08/14 00:19:24;;;;;;;9.00;5.37;;;20.50;58.70;;;;;;5042961;28;20920;-71
2022/08/14 00:21:51;;;;;;;7.30;5.10;;;20.50;58.10;;;;;;5047781;28;20186;-71
2022/08/14 00:24:18;;;;;;;7.00;5.27;;;20.40;59.30;;;;;;5045934;28;20198;-73
2022/08/14 00:26:43;;;;;;;6.70;4.80;;;20.30;59.50;;;;;;5040164;28;20458;-72
2022/08/14 00:29:09;;;;;;;5.83;5.50;;;20.20;59.70;;;;;;5043466;28;20432;-72
2022/08/14 00:31:35;;;;;;;7.43;4.87;;;20.20;60.10;;;;;;5041624;28;20196;-72
2022/08/14 00:34:00;;;;;;;6.83;5.10;;;20.00;60.60;;;;;;5042828;28;20192;-71
2022/08/14 00:36:26;;;;;;;6.00;4.53;;;19.90;61.20;;;;;;5037530;28;20214;-72
2022/08/14 00:38:51;;;;;;;7.57;5.10;;;19.90;61.30;;;;;;5039454;28;20218;-73
2022/08/14 00:41:17;;;;;;;8.30;5.07;;;19.80;61.50;;;;;;5045248;28;20558;-72
2022/08/14 00:43:44;;;;;;;7.40;5.00;;;19.80;61.60;;;;;;5037677;28;20247;-73
2022/08/14 00:46:10;;;;;;;7.07;5.10;;;19.70;61.90;;;;;;5038553;28;20188;-71
2022/08/14 00:48:37;;;;;;;9.03;5.90;;;19.60;62.20;;;;;;5044105;28;20539;-73
2022/08/14 00:51:06;;;;;;;6.80;5.40;;;19.60;62.30;;;;;;5042798;28;20427;-73
2022/08/14 00:53:31;;;;;;;8.53;5.00;;;19.50;62.60;;;;;;5046869;28;20555;-74
2022/08/14 00:55:57;;;;;;;10.17;5.90;;;19.40;63.10;;;;;;5039095;28;20495;-73
2022/08/14 00:58:29;;;;;;;6.57;5.00;;;19.40;63.20;;;;;;5033834;28;20206;-72
2022/08/14 01:00:56;;;;;;;8.40;4.90;;;19.30;63.40;;;;;;5042046;28;20194;-72
2022/08/14 01:03:21;;;;;;;7.80;5.50;;;19.30;63.70;;;;;;5040649;28;20413;-72
2022/08/14 01:05:50;;;;;;;8.03;5.33;;;19.20;63.70;;;;;;5041946;28;20430;-73
2022/08/14 01:08:19;;;;;;;6.90;5.43;;;19.20;63.90;;;;;;5032394;28;20282;-72
2022/08/14 01:10:50;;;;;;;7.93;5.60;;;19.10;64.10;;;;;;5040754;28;20424;-72
2022/08/14 01:13:21;;;;;;;7.97;5.23;;;19.00;64.40;;;;;;5037550;28;20477;-72
2022/08/14 01:15:52;;;;;;;5.23;4.53;;;19.00;64.50;;;;;;5039628;28;20525;-72
2022/08/14 01:21:05;;;;;;;5.97;5.13;;;18.80;64.50;;;;;;5041532;28;20479;-72
2022/08/14 01:23:41;;;;;;;8.47;5.33;;;18.80;64.50;;;;;;5040431;28;20425;-71
2022/08/14 01:26:07;;;;;;;6.20;5.23;;;18.90;64.50;;;;;;5036674;28;21066;-71
2022/08/14 01:28:37;;;;;;;8.03;5.10;;;18.80;64.50;;;;;;5039527;28;20489;-72
2022/08/14 01:31:15;;;;;;;5.97;5.10;;;18.80;65.10;;;;;;5037352;28;20450;-72
2022/08/14 01:33:47;;;;;;;8.37;5.43;;;18.70;65.30;;;;;;5038732;28;20421;-71
2022/08/14 01:36:15;;;;;;;9.23;5.40;;;18.70;65.40;;;;;;5036524;28;20416;-71
2022/08/14 01:38:42;;;;;;;6.80;5.33;;;18.70;65.30;;;;;;5036662;28;20455;-71
2022/08/14 01:41:13;;;;;;;8.23;5.23;;;18.70;65.10;;;;;;5039937;28;20432;-73
2022/08/14 01:44:00;;;;;;;8.07;5.17;;;18.70;64.70;;;;;;5038430;28;20425;-71
2022/08/14 01:46:27;;;;;;;5.23;4.60;;;18.70;65.00;;;;;;5036475;28;20418;-73
2022/08/14 01:48:53;;;;;;;5.97;4.80;;;18.70;65.00;;;;;;5039986;28;20463;-71
2022/08/14 01:51:23;;;;;;;7.10;5.20;;;18.80;64.50;;;;;;5036710;28;20424;-72
2022/08/14 01:53:53;;;;;;;8.03;4.70;;;18.90;64.40;;;;;;5038583;28;20243;-71
2022/08/14 01:56:20;;;;;;;6.63;4.20;;;18.90;64.10;;;;;;5033836;28;20444;-70
2022/08/14 01:58:48;;;;;;;7.40;4.50;;;18.90;64.10;;;;;;5036454;28;20514;-71
2022/08/14 02:01:18;;;;;;;6.33;4.83;;;19.00;64.20;;;;;;5036552;28;20816;-71
2022/08/14 02:03:45;;;;;;;6.00;4.60;;;19.00;63.90;;;;;;5040155;28;21093;-72
2022/08/14 02:06:11;;;;;;;7.13;5.13;;;19.00;63.90;;;;;;5038713;28;20477;-72
2022/08/14 02:08:39;;;;;;;6.33;4.87;;;19.00;64.10;;;;;;5041178;28;20463;-72
2022/08/14 02:11:17;;;;;;;6.93;5.20;;;19.00;64.10;;;;;;5038763;28;20455;-72
2022/08/14 02:13:45;;;;;;;6.70;5.00;;;19.00;64.20;;;;;;5034495;28;20419;-72
2022/08/14 02:16:11;;;;;;;6.70;4.73;;;18.90;64.50;;;;;;5041746;28;20435;-72
2022/08/14 02:18:38;;;;;;;6.30;5.00;;;18.80;64.70;;;;;;5034205;28;20487;-72
2022/08/14 02:21:05;;;;;;;6.13;4.83;;;18.90;64.40;;;;;;5041172;28;20512;-72
2022/08/14 02:23:31;;;;;;;5.70;4.87;;;18.80;64.50;;;;;;5038767;28;20462;-72
2022/08/14 02:26:12;;;;;;;6.23;5.27;;;18.70;64.70;;;;;;5042568;28;20511;-74
2022/08/14 02:28:38;;;;;;;7.00;4.93;;;18.70;64.70;;;;;;5038398;28;21202;-72
2022/08/14 02:31:07;;;;;;;5.77;4.70;;;18.60;64.80;;;;;;5041744;28;20460;-72
2022/08/14 02:33:34;;;;;;;6.20;4.70;;;18.50;65.00;;;;;;5041859;28;20274;-74
2022/08/14 02:36:02;;;;;;;5.70;4.60;;;18.60;64.70;;;;;;5041580;28;20513;-73
2022/08/14 02:38:29;;;;;;;7.80;5.60;;;18.60;64.70;;;;;;5048180;28;20461;-72
2022/08/14 02:40:56;;;;;;;6.60;4.97;;;18.50;65.10;;;;;;5046798;28;20473;-72
2022/08/14 02:43:22;;;;;;;4.93;4.47;;;18.60;65.30;;;;;;5041999;28;20917;-73
2022/08/14 02:45:48;;;;;;;5.43;4.37;;;18.70;65.10;;;;;;5041810;28;20489;-71
2022/08/14 02:48:14;;;;;;;5.67;4.57;;;18.70;65.30;;;;;;5041728;28;20206;-72
2022/08/14 02:50:41;;;;;;;9.20;5.20;;;18.70;65.10;;;;;;5044773;28;20684;-71
2022/08/14 02:53:08;;;;;;;7.07;4.80;;;18.70;65.10;;;;;;5043724;28;20483;-74
2022/08/14 02:55:34;;;;;;;8.43;5.37;;;18.60;65.30;;;;;;5037101;28;20523;-72
2022/08/14 02:58:00;;;;;;;8.80;5.30;;;18.50;65.60;;;;;;5047792;28;21052;-74
2022/08/14 03:00:26;;;;;;;6.13;4.30;;;18.40;65.80;;;;;;5038207;28;20472;-72
2022/08/14 03:02:52;;;;;;;8.03;5.77;;;18.40;65.80;;;;;;5049132;28;20803;-72
2022/08/14 03:05:19;;;;;;;9.93;6.50;;;18.30;66.10;;;;;;5041991;28;20195;-72
2022/08/14 03:07:44;;;;;;;9.70;4.80;;;18.30;66.40;;;;;;5049058;28;20210;-71
2022/08/14 03:10:10;;;;;;;7.17;4.70;;;18.50;66.00;;;;;;5041525;28;20433;-72
2022/08/14 03:12:36;;;;;;;7.93;5.37;;;18.50;65.60;;;;;;5043940;28;20195;-70
2022/08/14 03:15:08;;;;;;;6.17;4.57;;;18.40;66.00;;;;;;5040836;28;20436;-73
2022/08/14 03:17:34;;;;;;;6.80;5.10;;;18.40;66.60;;;;;;5047972;28;20334;-72
2022/08/14 03:20:00;;;;;;;6.90;4.50;;;18.40;66.40;;;;;;5043811;28;20575;-73
2022/08/14 03:22:26;;;;;;;6.30;4.80;;;18.40;66.30;;;;;;5046742;28;20276;-73
2022/08/14 03:24:52;;;;;;;5.80;4.90;;;18.40;66.10;;;;;;5046985;28;20282;-72
2022/08/14 03:27:18;;;;;;;6.53;5.20;;;18.40;66.60;;;;;;5051442;28;20491;-73
2022/08/14 03:29:44;;;;;;;6.20;4.73;;;18.40;66.60;;;;;;5040320;28;20202;-71
2022/08/14 03:32:09;;;;;;;8.70;6.00;;;18.40;66.70;;;;;;5048592;28;20187;-72
2022/08/14 03:34:36;;;;;;;6.23;5.30;;;18.30;67.00;;;;;;5045408;28;20946;-73
2022/08/14 03:37:02;;;;;;;8.53;5.10;;;18.30;67.20;;;;;;5041651;28;20212;-74
2022/08/14 03:39:27;;;;;;;5.83;4.80;;;18.30;67.20;;;;;;5036403;28;20528;-73
2022/08/14 03:41:55;;;;;;;6.70;4.73;;;18.30;67.00;;;;;;5047213;28;20480;-73
2022/08/14 03:44:22;;;;;;;5.60;4.80;;;18.20;67.50;;;;;;5051740;28;20227;-73
2022/08/14 03:46:50;;;;;;;6.03;5.03;;;18.20;67.30;;;;;;5043021;28;20490;-73
2022/08/14 03:49:22;;;;;;;6.83;5.50;;;18.20;67.60;;;;;;5045671;28;20425;-72
2022/08/14 03:51:48;;;;;;;7.17;5.20;;;18.20;67.70;;;;;;5045346;28;20481;-72
2022/08/14 03:54:14;;;;;;;5.90;4.87;;;18.10;67.50;;;;;;5041979;28;20425;-73
2022/08/14 03:56:43;;;;;;;6.37;5.27;;;18.10;67.70;;;;;;5034371;28;20428;-73
2022/08/14 03:59:10;;;;;;;7.67;5.03;;;18.10;67.60;;;;;;5051999;28;20265;-73
2022/08/14 04:01:38;;;;;;;6.13;5.03;;;18.10;67.50;;;;;;5034440;28;20418;-73
2022/08/14 04:04:05;;;;;;;6.57;5.30;;;18.10;67.60;;;;;;5047303;28;20437;-73
2022/08/14 04:06:32;;;;;;;5.53;4.80;;;18.10;67.50;;;;;;5035390;28;20427;-71
2022/08/14 04:08:58;;;;;;;6.87;5.27;;;18.10;67.30;;;;;;5043151;28;20440;-73
2022/08/14 04:11:24;;;;;;;7.33;5.20;;;18.10;67.30;;;;;;5038672;28;20428;-71
2022/08/14 04:13:50;;;;;;;11.10;5.27;;;18.10;67.60;;;;;;5042459;28;20256;-71
2022/08/14 04:16:19;;;;;;;7.77;5.50;;;18.00;67.60;;;;;;5035400;28;20429;-72
2022/08/14 04:18:47;;;;;;;7.43;4.93;;;18.00;68.20;;;;;;5039382;28;20227;-72
2022/08/14 04:21:14;;;;;;;6.50;4.60;;;18.00;67.70;;;;;;5035126;28;20785;-71
2022/08/14 04:23:41;;;;;;;5.40;4.40;;;18.00;67.90;;;;;;5046624;28;20427;-72
2022/08/14 04:26:10;;;;;;;6.53;5.40;;;18.10;67.60;;;;;;5042221;28;20430;-72
2022/08/14 04:28:38;;;;;;;6.00;4.47;;;18.00;67.70;;;;;;5047183;28;20499;-73
2022/08/14 04:31:05;;;;;;;5.77;4.57;;;18.10;67.60;;;;;;5056584;28;20490;-73
2022/08/14 04:33:31;;;;;;;6.10;4.80;;;18.00;67.70;;;;;;5049489;28;20448;-73
2022/08/14 04:35:57;;;;;;;8.10;5.67;;;18.10;67.90;;;;;;5049197;28;20948;-73
2022/08/14 04:43:52;;;;;;;8.77;4.73;;;18.20;67.30;;;;;;5043960;28;20795;-72
2022/08/14 04:46:20;;;;;;;6.73;4.90;;;18.30;66.90;;;;;;5043871;28;20427;-72
2022/08/14 04:48:47;;;;;;;7.47;5.30;;;18.30;66.90;;;;;;5039930;28;20186;-73
2022/08/14 04:51:14;;;;;;;8.53;5.33;;;18.40;66.70;;;;;;5042729;28;20419;-73
2022/08/14 04:53:42;;;;;;;8.73;5.30;;;18.40;66.40;;;;;;5033767;28;20765;-71
2022/08/14 04:56:13;;;;;;;5.63;4.53;;;18.40;66.60;;;;;;5040474;28;20449;-71
2022/08/14 04:58:41;;;;;;;5.80;5.13;;;18.30;67.20;;;;;;5039293;28;20830;-72
2022/08/14 05:01:09;;;;;;;6.90;5.50;;;18.20;67.60;;;;;;5037462;28;21049;-72
2022/08/14 05:03:36;;;;;;;6.80;4.90;;;18.20;67.90;;;;;;5036778;28;20425;-71
2022/08/14 05:06:04;;;;;;;6.00;4.77;;;18.10;68.00;;;;;;5042030;28;20431;-71
2022/08/14 05:08:31;;;;;;;6.47;5.20;;;18.10;68.50;;;;;;5045929;28;20467;-72
2022/08/14 05:10:59;;;;;;;6.83;5.00;;;18.10;68.20;;;;;;5041818;28;20945;-73
2022/08/14 05:13:29;;;;;;;7.53;5.13;;;18.10;68.60;;;;;;5034145;28;20460;-72
2022/08/14 05:15:57;;;;;;;5.93;4.60;;;18.10;68.60;;;;;;5046936;28;20437;-71
2022/08/14 05:18:29;;;;;;;6.73;4.77;;;18.10;68.30;;;;;;5048603;28;20482;-73
2022/08/14 05:20:57;;;;;;;6.97;5.07;;;18.20;67.90;;;;;;5050102;28;20496;-72
2022/08/14 05:23:25;;;;;;;6.67;5.00;;;18.30;67.30;;;;;;5053757;28;20472;-72
2022/08/14 05:25:59;;;;;;;7.03;5.87;;;18.30;67.30;;;;;;5041024;28;20941;-71
2022/08/14 05:28:32;;;;;;;12.87;6.17;;;18.40;66.90;;;;;;5040042;28;21273;-71
2022/08/14 05:31:02;;;;;;;8.07;5.67;;;18.50;66.60;;;;;;5040636;28;20925;-72
2022/08/14 05:33:29;;;;;;;6.60;5.37;;;18.60;66.40;;;;;;5042432;28;20426;-71
2022/08/14 05:36:00;;;;;;;7.33;5.03;;;18.60;66.40;;;;;;5038359;28;20515;-73
2022/08/14 05:38:35;;;;;;;6.73;5.37;;;18.60;66.60;;;;;;5042704;28;20878;-72
2022/08/14 05:41:09;;;;;;;7.57;5.10;;;18.50;66.60;;;;;;5036362;28;20564;-73
2022/08/14 05:43:35;;;;;;;6.70;5.40;;;18.50;66.70;;;;;;5040976;28;20517;-71
2022/08/14 05:46:01;;;;;;;9.13;5.90;;;18.60;66.60;;;;;;5040614;28;20416;-73
2022/08/14 05:48:28;;;;;;;8.53;5.70;;;18.70;65.80;;;;;;5043794;28;20570;-71
2022/08/14 05:50:54;;;;;;;9.03;5.77;;;18.80;65.70;;;;;;5040596;28;20424;-71
2022/08/14 05:53:21;;;;;;;8.50;6.10;;;18.90;65.10;;;;;;5038270;28;20424;-73
2022/08/14 05:55:48;;;;;;;6.70;5.50;;;19.00;65.00;;;;;;5030584;28;20939;-73
2022/08/14 05:58:13;;;;;;;6.20;5.27;;;19.00;65.10;;;;;;5042184;28;20502;-71
2022/08/14 06:00:42;;;;;;;9.10;5.47;;;19.10;64.80;;;;;;5038234;28;20507;-72
2022/08/14 06:03:13;;;;;;;8.07;5.40;;;19.00;65.40;;;;;;5038835;28;20184;-73
2022/08/14 06:05:40;;;;;;;7.00;5.13;;;19.10;65.10;;;;;;5045979;28;20908;-72
2022/08/14 06:08:17;;;;;;;8.77;6.20;;;19.20;65.00;;;;;;5037626;28;21117;-73
2022/08/14 06:10:43;;;;;;;6.37;5.40;;;19.20;64.80;;;;;;5043656;28;20427;-73
2022/08/14 06:13:09;;;;;;;6.30;5.60;;;19.30;64.50;;;;;;5037695;28;20486;-72
2022/08/14 06:15:34;;;;;;;7.93;5.50;;;19.40;64.50;;;;;;5045990;28;20439;-72
2022/08/14 06:18:00;;;;;;;6.70;5.43;;;19.40;64.80;;;;;;5046240;28;20247;-71
2022/08/14 06:20:27;;;;;;;6.63;5.23;;;19.40;65.10;;;;;;5046062;28;20211;-71
2022/08/14 06:22:52;;;;;;;7.03;5.50;;;19.40;64.80;;;;;;5039491;28;20183;-71
2022/08/14 06:25:18;;;;;;;6.47;5.60;;;19.50;64.80;;;;;;5047207;28;20435;-71
2022/08/14 06:27:48;;;;;;;7.00;5.57;;;19.50;64.80;;;;;;5041127;28;20212;-71
2022/08/14 06:30:19;;;;;;;7.63;5.50;;;19.60;64.80;;;;;;5043633;28;20557;-70
2022/08/14 06:32:46;;;;;;;6.37;5.10;;;19.60;65.00;;;;;;5040164;28;20438;-71
2022/08/14 06:35:19;;;;;;;5.40;4.93;;;19.60;64.70;;;;;;5042158;28;20420;-73
2022/08/14 06:37:57;;;;;;;7.17;5.43;;;19.80;64.10;;;;;;5039364;28;20951;-70
2022/08/14 06:40:31;;;;;;;7.87;4.73;;;19.90;63.90;;;;;;5041968;28;20475;-71
2022/08/14 06:43:04;;;;;;;7.47;5.30;;;19.90;64.20;;;;;;5038815;28;20440;-70
2022/08/14 06:45:35;;;;;;;7.60;5.40;;;20.10;63.80;;;;;;5035994;28;20802;-71
2022/08/14 06:48:02;;;;;;;11.70;6.40;;;20.20;63.40;;;;;;5049443;28;20870;-70
2022/08/14 06:50:29;;;;;;;10.97;6.33;;;20.20;62.90;;;;;;5034434;28;20440;-71
2022/08/14 06:52:55;;;;;;;9.60;5.80;;;20.30;63.40;;;;;;5046508;28;20472;-71
2022/08/14 06:55:21;;;;;;;8.23;5.60;;;20.30;63.10;;;;;;5034766;28;20475;-72
2022/08/14 06:57:49;;;;;;;6.90;5.70;;;20.50;62.90;;;;;;5046522;28;20217;-74
2022/08/14 07:00:17;;;;;;;9.27;5.43;;;20.50;62.50;;;;;;5039622;28;20460;-70
2022/08/14 07:05:46;;;;;;;9.03;5.80;;;20.70;61.70;;;;;;5039457;28;20462;-72
2022/08/14 07:08:25;;;;;;;6.57;5.50;;;20.80;61.50;;;;;;5044547;28;21040;-72
2022/08/14 07:10:52;;;;;;;6.33;5.63;;;20.90;61.70;;;;;;5042218;28;20416;-72
2022/08/14 07:13:18;;;;;;;8.77;6.30;;;20.90;60.70;;;;;;5041349;28;20426;-73
2022/08/14 07:15:47;;;;;;;11.60;7.00;;;20.90;60.90;;;;;;5049133;28;20427;-72
2022/08/14 07:18:13;;;;;;;7.17;5.70;;;20.90;61.20;;;;;;5038024;28;20907;-72
2022/08/14 07:20:40;;;;;;;8.17;5.80;;;21.00;61.60;;;;;;5045452;28;20551;-72
2022/08/14 07:23:08;;;;;;;9.60;6.57;;;21.10;61.30;;;;;;5039434;28;20182;-72
2022/08/14 07:25:35;;;;;;;7.53;6.10;;;21.20;61.00;;;;;;5040020;28;20426;-71
2022/08/14 07:28:12;;;;;;;8.17;6.47;;;21.40;60.70;;;;;;5042993;28;20493;-71
2022/08/14 07:30:38;;;;;;;6.60;6.10;;;21.50;60.30;;;;;;5040937;28;20830;-73
2022/08/14 07:33:04;;;;;;;7.07;6.30;;;21.50;60.10;;;;;;5043998;28;20877;-71
2022/08/14 07:35:31;;;;;;;8.97;5.97;;;21.60;59.70;;;;;;5044446;28;20439;-71
2022/08/14 07:37:57;;;;;;;6.00;5.70;;;21.70;60.10;;;;;;5038066;28;20897;-71
2022/08/14 07:40:22;;;;;;;8.70;5.90;;;21.90;59.60;;;;;;5044170;28;20477;-72
2022/08/14 07:42:48;;;;;;;9.93;6.40;;;22.00;59.20;;;;;;5038723;28;20267;-72
2022/08/14 07:45:13;;;;;;;7.90;6.20;;;22.10;58.70;;;;;;5046708;28;20195;-72
2022/08/14 07:47:41;;;;;;;9.53;5.40;;;22.10;58.00;;;;;;5043464;28;20298;-72
2022/08/14 07:50:11;;;;;;;8.40;5.93;;;22.20;57.20;;;;;;5040387;28;20531;-72
2022/08/14 07:52:37;;;;;;;13.83;5.80;;;22.30;57.30;;;;;;5043069;28;20923;-73
2022/08/14 07:55:03;;;;;;;8.43;5.77;;;22.50;56.90;;;;;;5041057;28;20446;-72
2022/08/14 07:57:29;;;;;;;9.13;5.83;;;22.60;56.10;;;;;;5036608;28;20465;-72
2022/08/14 07:59:55;;;;;;;6.33;5.50;;;22.70;56.00;;;;;;5043296;28;20469;-73
2022/08/14 08:02:20;;;;;;;8.00;5.43;;;22.80;55.70;;;;;;5043196;28;20186;-73
2022/08/14 08:04:52;;;;;;;8.30;6.60;;;22.90;54.80;;;;;;5040224;28;20190;-71
2022/08/14 08:07:18;;;;;;;5.90;5.20;;;23.10;53.00;;;;;;5040213;28;20550;-72
2022/08/14 08:09:51;;;;;;;5.23;4.33;;;23.20;52.50;;;;;;5041370;28;20541;-73
2022/08/14 08:12:19;;;;;;;5.53;4.40;;;23.30;51.70;;;;;;5040699;28;20220;-71
2022/08/14 08:14:47;;;;;;;4.83;4.17;;;23.40;50.10;;;;;;5038063;28;20479;-71
2022/08/14 08:17:14;;;;;;;5.07;4.23;;;23.60;49.10;;;;;;5038856;28;20476;-72
2022/08/14 08:19:39;;;;;;;4.93;4.20;;;23.80;47.90;;;;;;5039673;28;20469;-73
2022/08/14 08:22:05;;;;;;;6.67;4.43;;;23.90;47.70;;;;;;5038370;28;20431;-72
2022/08/14 08:24:31;;;;;;;7.70;6.30;;;24.10;47.10;;;;;;5033084;28;20609;-73
2022/08/14 08:26:56;;;;;;;6.80;4.80;;;24.10;46.90;;;;;;5044564;28;20218;-72
2022/08/14 08:29:23;;;;;;;5.70;4.03;;;24.30;46.90;;;;;;5037410;28;20214;-72
2022/08/14 08:31:50;;;;;;;4.83;4.47;;;24.30;46.10;;;;;;5042523;28;20211;-72
2022/08/14 08:34:16;;;;;;;5.83;4.57;;;24.40;45.80;;;;;;5037063;28;20435;-71
2022/08/14 08:36:42;;;;;;;5.47;4.27;;;24.50;46.10;;;;;;5038175;28;20927;-72
2022/08/14 08:39:09;;;;;;;6.50;4.70;;;24.60;45.50;;;;;;5033373;28;20515;-72
2022/08/14 08:41:53;;;;;;;7.13;4.40;;;24.70;45.80;;;;;;5043248;28;20912;-74
2022/08/14 08:44:18;;;;;;;4.73;4.10;;;24.90;45.00;;;;;;5041115;28;20417;-69
2022/08/14 08:46:44;;;;;;;4.93;4.03;;;25.00;45.30;;;;;;5045352;28;20449;-70
2022/08/14 08:49:09;;;;;;;7.80;4.47;;;25.10;44.70;;;;;;5044927;28;20249;-71
2022/08/14 08:51:38;;;;;;;5.10;4.10;;;25.20;44.10;;;;;;5043080;28;20290;-71
2022/08/14 08:54:12;;;;;;;5.97;4.30;;;25.30;43.50;;;;;;5039723;28;20194;-70
2022/08/14 08:56:44;;;;;;;5.37;4.30;;;25.30;43.20;;;;;;5037036;28;20443;-70
2022/08/14 08:59:31;;;;;;;4.50;3.80;;;25.40;42.70;;;;;;5039935;28;20541;-71
2022/08/14 09:02:04;;;;;;;6.80;4.30;;;25.60;42.30;;;;;;5039694;28;20524;-70
2022/08/14 09:04:49;;;;;;;5.40;4.10;;;25.60;42.00;;;;;;5043283;28;20863;-71
2022/08/14 09:07:14;;;;;;;5.47;3.77;;;25.70;41.60;;;;;;5035399;28;20562;-71
2022/08/14 09:09:52;;;;;;;4.17;3.90;;;25.80;41.40;;;;;;5038655;28;20865;-71
2022/08/14 09:12:18;;;;;;;5.70;5.03;;;25.90;41.20;;;;;;5040446;28;20335;-69
2022/08/14 09:14:47;;;;;;;6.60;4.50;;;26.00;41.50;;;;;;5041272;28;20432;-69
2022/08/14 09:17:13;;;;;;;7.03;5.20;;;26.10;41.50;;;;;;5034129;28;20509;-71
2022/08/14 09:19:40;;;;;;;6.00;4.97;;;26.20;41.20;;;;;;5034528;28;20464;-70
2022/08/14 09:22:06;;;;;;;5.47;4.50;;;26.20;41.60;;;;;;5035178;28;20437;-70
2022/08/14 09:24:32;;;;;;;5.53;4.43;;;26.20;41.80;;;;;;5037461;28;20430;-71
2022/08/14 09:26:58;;;;;;;7.00;5.20;;;26.40;41.80;;;;;;5040413;28;20218;-70
2022/08/14 09:29:24;;;;;;;7.03;4.97;;;26.50;41.90;;;;;;5050137;28;20784;-70
2022/08/14 09:31:54;;;;;;;6.10;4.67;;;26.50;41.90;;;;;;5044262;28;20950;-71
2022/08/14 09:34:19;;;;;;;6.40;4.60;;;26.60;41.60;;;;;;5046251;28;20433;-69
2022/08/14 09:36:45;;;;;;;7.20;5.70;;;26.60;41.60;;;;;;5040575;28;20451;-68
2022/08/14 09:39:27;;;;;;;5.73;4.83;;;26.60;41.90;;;;;;5045639;28;20215;-71
2022/08/14 09:42:12;;;;;;;4.60;4.13;;;26.70;41.60;;;;;;5039542;28;20682;-69
2022/08/14 09:44:59;;;;;;;7.73;5.23;;;26.80;41.00;;;;;;5032564;28;20419;-69
2022/08/14 09:47:51;;;;;;;5.53;5.27;;;26.80;41.00;;;;;;5042410;28;20578;-69
2022/08/14 09:50:29;;;;;;;5.37;5.10;;;26.80;40.70;;;;;;5042703;28;20421;-71
2022/08/14 09:53:06;;;;;;;5.07;4.77;;;26.90;40.60;;;;;;5039454;28;20469;-68
2022/08/14 09:55:34;;;;;;;6.70;5.17;;;27.00;40.20;;;;;;5037785;28;20417;-69
2022/08/14 09:58:14;;;;;;;6.00;4.80;;;27.20;39.90;;;;;;5044978;28;20531;-71
2022/08/14 10:00:46;;;;;;;5.60;4.87;;;27.30;39.90;;;;;;5043650;28;20478;-71
2022/08/14 10:03:23;;;;;;;5.43;4.90;;;27.40;39.50;;;;;;5042421;28;20429;-69
2022/08/14 10:05:49;;;;;;;6.90;4.90;;;27.40;39.20;;;;;;5046033;28;20871;-70
2022/08/14 10:08:19;;;;;;;4.80;4.60;;;27.30;39.40;;;;;;5039073;28;20468;-71
2022/08/14 10:10:46;;;;;;;4.90;4.70;;;27.20;39.60;;;;;;5045054;28;20272;-71
2022/08/14 10:13:23;;;;;;;5.83;4.73;;;27.30;39.50;;;;;;5041409;28;20446;-72
2022/08/14 10:15:49;;;;;;;5.00;4.70;;;27.50;39.60;;;;;;5042463;28;20515;-71
2022/08/14 10:18:17;;;;;;;6.00;5.03;;;27.70;38.70;;;;;;5039099;28;20504;-72
2022/08/14 10:20:56;;;;;;;7.53;5.90;;;27.60;38.70;;;;;;5040126;28;20472;-71
2022/08/14 10:23:23;;;;;;;6.13;5.90;;;27.60;38.80;;;;;;5045040;28;20423;-70
2022/08/14 10:26:04;;;;;;;6.03;5.40;;;27.80;38.80;;;;;;5040920;28;20871;-71
2022/08/14 10:28:45;;;;;;;5.87;4.83;;;27.90;37.90;;;;;;5042487;28;20454;-72
2022/08/14 10:31:28;;;;;;;6.20;5.40;;;28.20;37.60;;;;;;5039476;28;20419;-71
2022/08/14 10:34:01;;;;;;;6.90;4.90;;;28.50;36.40;;;;;;5047908;28;20426;-70
2022/08/14 10:36:32;;;;;;;7.20;5.47;;;28.90;35.60;;;;;;5043531;28;20425;-72
2022/08/14 10:39:00;;;;;;;9.20;5.20;;;29.20;35.10;;;;;;5042937;28;20906;-72
2022/08/14 10:41:38;;;;;;;8.43;5.43;;;29.60;34.70;;;;;;5039962;28;20488;-71
2022/08/14 10:44:11;;;;;;;6.20;5.27;;;29.50;34.80;;;;;;5041093;28;20592;-71
2022/08/14 10:46:44;;;;;;;6.43;5.57;;;29.60;34.50;;;;;;5042253;28;20454;-73
2022/08/14 10:49:18;;;;;;;5.53;5.13;;;29.40;34.50;;;;;;5046175;28;20451;-73
2022/08/14 10:51:58;;;;;;;7.10;5.47;;;29.40;34.80;;;;;;5040875;28;20511;-73
2022/08/14 10:54:40;;;;;;;7.20;5.07;;;29.80;34.00;;;;;;5041733;28;20430;-74
2022/08/14 10:57:14;;;;;;;6.07;5.17;;;30.10;33.70;;;;;;5043557;28;20464;-71
2022/08/14 10:59:52;;;;;;;6.80;5.10;;;30.00;33.50;;;;;;5034972;28;20566;-72
2022/08/14 11:02:38;;;;;;;4.90;4.67;;;30.30;32.90;;;;;;5042259;28;20429;-71
2022/08/14 11:05:06;;;;;;;5.80;5.33;;;30.40;33.10;;;;;;5046019;28;20420;-71
2022/08/14 11:07:35;;;;;;;7.00;4.97;;;30.80;32.70;;;;;;5050345;28;20486;-72
2022/08/14 11:10:08;;;;;;;5.70;5.43;;;31.00;31.60;;;;;;5052432;28;20447;-72
2022/08/14 11:12:40;;;;;;;5.13;4.87;;;30.90;32.00;;;;;;5045093;28;20470;-73
2022/08/14 11:15:06;;;;;;;6.50;4.90;;;30.90;31.70;;;;;;5045371;28;20431;-71
2022/08/14 11:17:34;;;;;;;6.43;5.23;;;31.00;31.90;;;;;;5045319;28;20478;-72
2022/08/14 11:20:02;;;;;;;5.70;4.57;;;31.00;31.30;;;;;;5041914;28;20471;-73
2022/08/14 11:22:30;;;;;;;5.73;4.53;;;31.00;31.30;;;;;;5040904;28;20434;-75
2022/08/14 11:25:02;;;;;;;6.40;5.03;;;30.90;30.80;;;;;;5044454;28;20455;-72
2022/08/14 11:27:30;;;;;;;6.83;5.53;;;30.90;31.20;;;;;;5037299;28;20466;-73
2022/08/14 11:30:19;;;;;;;9.60;6.00;;;30.80;31.30;;;;;;5045038;28;20439;-73
2022/08/14 11:32:47;;;;;;;5.70;5.00;;;30.60;32.00;;;;;;5043842;28;20450;-72
2022/08/14 11:35:21;;;;;;;5.90;4.97;;;30.70;31.90;;;;;;5044274;28;20431;-72
2022/08/14 11:37:51;;;;;;;6.70;5.00;;;31.00;31.30;;;;;;5035458;28;20475;-72
2022/08/14 11:40:17;;;;;;;8.10;4.50;;;31.00;31.30;;;;;;5040978;28;20467;-71
2022/08/14 11:42:45;;;;;;;6.80;5.50;;;31.10;31.20;;;;;;5033465;28;20923;-72
2022/08/14 11:45:11;;;;;;;5.43;4.97;;;31.50;30.40;;;;;;5039407;28;20435;-71
2022/08/14 11:47:37;;;;;;;7.30;5.63;;;31.60;30.30;;;;;;5032454;28;20821;-73
2022/08/14 11:50:18;;;;;;;5.90;5.13;;;31.70;29.80;;;;;;5043900;28;20192;-71
2022/08/14 11:52:44;;;;;;;5.20;5.00;;;31.30;30.50;;;;;;5053683;28;20456;-72
2022/08/14 11:55:12;;;;;;;6.33;5.40;;;31.20;30.80;;;;;;5043865;28;20428;-71
2022/08/14 11:57:39;;;;;;;6.67;5.20;;;31.10;30.80;;;;;;5047619;28;20468;-72
2022/08/14 12:00:16;;;;;;;6.10;5.70;;;30.70;31.20;;;;;;5040949;28;20463;-72
2022/08/14 12:02:57;;;;;;;6.67;5.33;;;30.30;31.50;;;;;;5044811;28;20435;-73
2022/08/14 12:05:38;;;;;;;5.83;5.33;;;30.30;31.70;;;;;;5041372;28;20435;-72
2022/08/14 12:08:08;;;;;;;7.00;5.10;;;30.60;31.30;;;;;;5038457;28;20473;-72
2022/08/14 12:10:35;;;;;;;7.53;5.23;;;31.10;30.30;;;;;;5043049;28;20838;-73
2022/08/14 12:13:15;;;;;;;6.63;5.10;;;31.10;29.40;;;;;;5043589;28;20423;-72
2022/08/14 12:15:43;;;;;;;6.53;5.10;;;31.20;29.50;;;;;;5042104;28;20469;-73
2022/08/14 12:18:10;;;;;;;5.93;4.93;;;31.10;29.00;;;;;;5042521;28;20577;-72
2022/08/14 12:20:41;;;;;;;5.80;5.20;;;30.90;29.10;;;;;;5047156;28;20479;-73
2022/08/14 12:23:23;;;;;;;5.87;4.77;;;31.30;28.80;;;;;;5047228;28;20792;-72
2022/08/14 12:25:49;;;;;;;5.63;4.80;;;31.30;28.50;;;;;;5043264;28;20434;-72
2022/08/14 12:28:15;;;;;;;6.23;4.80;;;31.20;29.40;;;;;;5038333;28;20468;-72
2022/08/14 12:30:47;;;;;;;6.77;5.23;;;31.30;29.90;;;;;;5043933;28;20193;-74
2022/08/14 12:33:20;;;;;;;38.87;27.23;;;31.80;29.40;;;;;;5037879;28;20188;-74
2022/08/14 12:35:48;;;;;;;10.67;6.03;;;32.30;29.00;;;;;;5044254;28;20500;-73
2022/08/14 12:38:13;;;;;;;5.37;5.10;;;32.00;28.10;;;;;;5035896;28;20467;-73
2022/08/14 12:40:51;;;;;;;4.90;4.63;;;31.50;28.40;;;;;;5053271;28;20567;-74
2022/08/14 12:43:18;;;;;;;5.43;4.17;;;31.60;28.10;;;;;;5053738;28;20208;-73
2022/08/14 12:45:55;;;;;;;4.53;4.00;;;32.00;27.80;;;;;;5037411;28;20427;-74
2022/08/14 12:48:23;;;;;;;5.83;4.67;;;32.50;26.80;;;;;;5050271;28;20478;-72
2022/08/14 12:50:53;;;;;;;5.70;4.70;;;32.80;26.80;;;;;;5050362;28;20454;-73
2022/08/14 12:53:20;;;;;;;6.33;4.17;;;33.00;26.00;;;;;;5037137;28;20553;-73
2022/08/14 12:55:58;;;;;;;4.57;3.90;;;33.20;26.10;;;;;;5035586;28;20416;-74
2022/08/14 12:58:28;;;;;;;5.70;3.97;;;33.40;25.30;;;;;;5032404;28;20466;-73
2022/08/14 13:00:55;;;;;;;4.33;3.83;;;33.70;25.40;;;;;;5039695;28;20641;-72
2022/08/14 13:03:27;;;;;;;5.20;3.73;;;34.00;25.40;;;;;;5036331;28;20806;-75
2022/08/14 13:05:53;;;;;;;6.10;5.10;;;33.60;25.20;;;;;;5033577;28;20456;-72
2022/08/14 13:08:21;;;;;;;6.00;4.97;;;33.60;24.90;;;;;;5034583;28;20475;-72